createdAt,value
2022-08-25T00:03:58.460Z,64.33
2022-08-25T00:06:46.867Z,64.65
2022-08-25T00:09:35.752Z,64.72
2022-08-25T00:12:23.076Z,65.06
2022-08-25T00:15:11.232Z,65.31
2022-08-25T00:17:58.938Z,65.33
2022-08-25T00:20:48.774Z,65.92
2022-08-25T00:23:36.329Z,65.83
2022-08-25T00:26:23.830Z,65.86
2022-08-25T00:29:11.704Z,65.76
2022-08-25T00:31:59.531Z,65.61
2022-08-25T00:34:47.078Z,65.93
2022-08-25T00:37:34.128Z,65.52
2022-08-25T00:40:22.367Z,66.00
2022-08-25T00:43:09.844Z,65.96
2022-08-25T00:45:56.958Z,66.42
2022-08-25T00:48:47.608Z,66.58
2022-08-25T00:51:43.126Z,66.73
2022-08-25T00:54:40.937Z,66.77
2022-08-25T00:57:35.233Z,66.83
2022-08-25T01:00:24.847Z,66.91
2022-08-25T01:03:12.383Z,66.80
2022-08-25T01:06:02.036Z,66.92
2022-08-25T01:08:32.391Z,66.98
2022-08-25T01:11:03.561Z,66.85
2022-08-25T01:13:45.302Z,66.95
2022-08-25T01:16:15.138Z,66.75
2022-08-25T01:18:52.296Z,66.96
2022-08-25T01:21:22.189Z,66.93
2022-08-25T01:23:53.109Z,67.18
2022-08-25T01:26:30.353Z,67.27
2022-08-25T01:29:18.292Z,67.20
2022-08-25T01:31:45.322Z,67.14
2022-08-25T01:34:13.434Z,67.31
2022-08-25T01:36:42.549Z,67.25
2022-08-25T01:39:09.732Z,67.41
2022-08-25T01:41:46.335Z,67.67
2022-08-25T01:44:16.657Z,67.80
2022-08-25T01:46:43.996Z,67.62
2022-08-25T01:49:11.025Z,67.66
2022-08-25T01:51:48.883Z,67.93
2022-08-25T01:54:15.711Z,67.98
2022-08-25T01:56:42.571Z,68.14
2022-08-25T02:03:01.921Z,68.41
2022-08-25T02:05:30.197Z,68.60
2022-08-25T02:07:59.597Z,68.80
2022-08-25T02:10:27.573Z,68.99
2022-08-25T02:12:54.682Z,69.15
2022-08-25T02:15:21.579Z,69.41
2022-08-25T02:17:48.355Z,69.40
2022-08-25T02:24:16.563Z,69.52
2022-08-25T02:27:04.216Z,69.64
2022-08-25T02:29:51.314Z,69.51
2022-08-25T02:32:39.525Z,69.47
2022-08-25T02:35:26.706Z,69.39
2022-08-25T02:38:14.338Z,69.46
2022-08-25T02:41:07.974Z,69.51
2022-08-25T02:43:55.401Z,69.53
2022-08-25T02:46:42.539Z,69.42
2022-08-25T02:49:30.610Z,69.55
2022-08-25T02:52:17.776Z,69.62
2022-08-25T02:55:08.984Z,69.76
2022-08-25T02:57:56.019Z,69.82
2022-08-25T06:08:33.799Z,76.79
2022-08-25T06:11:07.447Z,76.77
2022-08-25T06:13:34.478Z,77.04
2022-08-25T06:16:01.321Z,77.17
2022-08-25T06:18:28.159Z,77.33
2022-08-25T06:20:54.928Z,77.06
2022-08-25T06:23:21.716Z,77.11
2022-08-25T06:25:50.714Z,77.25
2022-08-25T06:28:18.360Z,77.29
2022-08-25T06:30:45.799Z,77.30
2022-08-25T06:33:13.065Z,77.26
2022-08-25T06:35:44.458Z,77.37
2022-08-25T06:39:12.842Z,77.49
2022-08-25T06:41:39.682Z,77.28
2022-08-25T06:44:06.813Z,77.18
2022-08-25T06:46:36.196Z,77.09
2022-08-25T06:49:08.251Z,77.27
2022-08-25T06:51:52.261Z,77.37
2022-08-25T06:55:01.639Z,77.15
2022-08-25T06:58:25.819Z,77.19
2022-08-25T07:08:33.576Z,76.84
2022-08-25T07:11:15.918Z,77.12
2022-08-25T07:13:44.786Z,76.99
2022-08-25T07:17:10.563Z,77.30
2022-08-25T07:19:41.039Z,77.34
2022-08-25T07:26:33.567Z,76.39
2022-08-25T07:33:06.755Z,76.01
2022-08-25T07:35:37.954Z,75.98
2022-08-25T07:38:07.093Z,75.84
2022-08-25T07:40:38.034Z,75.85
2022-08-25T07:43:10.643Z,75.52
2022-08-25T07:45:49.084Z,75.36
2022-08-25T07:48:16.399Z,75.32
2022-08-25T07:50:45.850Z,74.96
2022-08-25T07:53:15.109Z,74.94
2022-08-25T07:55:42.017Z,74.78
2022-08-25T08:02:39.191Z,74.25
2022-08-25T08:08:59.021Z,74.23
2022-08-25T08:11:27.391Z,74.52
2022-08-25T08:13:56.612Z,74.82
2022-08-25T08:16:26.238Z,75.15
2022-08-25T08:23:04.243Z,76.04
2022-08-25T08:25:31.243Z,76.67
2022-08-25T08:27:58.069Z,76.47
2022-08-25T08:30:26.316Z,76.55
2022-08-25T08:33:11.933Z,75.90
2022-08-25T08:36:06.115Z,75.33
2022-08-25T08:38:43.263Z,73.57
2022-08-25T08:42:09.460Z,70.27
2022-08-25T08:44:37.152Z,66.66
2022-08-25T08:47:52.911Z,62.19
2022-08-25T08:50:51.998Z,58.46
2022-08-25T08:53:55.020Z,55.85
2022-08-25T08:56:32.087Z,52.81
2022-08-25T08:59:06.334Z,50.24
2022-08-25T09:01:47.123Z,49.10
2022-08-25T09:04:45.443Z,48.12
2022-08-25T09:07:17.860Z,46.29
2022-08-25T09:09:48.013Z,45.11
2022-08-25T09:12:21.892Z,46.95
2022-08-25T09:15:14.663Z,44.74
2022-08-25T09:25:39.652Z,40.79
2022-08-25T09:28:38.756Z,40.75
2022-08-25T09:34:56.363Z,38.58
2022-08-25T09:37:25.051Z,37.95
2022-08-25T09:39:51.911Z,37.07
2022-08-25T09:42:23.754Z,36.96
2022-08-25T09:44:50.803Z,36.37
2022-08-25T09:47:28.093Z,37.12
2022-08-25T09:53:35.208Z,35.77
2022-08-25T09:56:27.373Z,35.16
2022-08-25T09:59:36.105Z,35.63
2022-08-25T10:02:25.831Z,35.05
2022-08-25T10:04:53.501Z,34.78
2022-08-25T10:07:54.824Z,34.46
2022-08-25T10:10:53.302Z,34.11
2022-08-25T10:13:47.519Z,34.05
2022-08-25T10:16:34.830Z,33.98
2022-08-25T10:19:27.033Z,34.21
2022-08-25T10:26:37.403Z,33.26
2022-08-25T10:29:42.834Z,33.02
2022-08-25T10:32:54.312Z,32.13
2022-08-25T10:36:15.102Z,32.37
2022-08-25T10:39:31.731Z,32.24
2022-08-25T10:50:29.566Z,32.85
2022-08-25T10:53:14.288Z,33.65
2022-08-25T11:03:35.256Z,36.37
2022-08-25T11:06:18.029Z,36.48
2022-08-25T11:08:53.323Z,36.71
2022-08-25T11:11:47.212Z,37.12
2022-08-25T11:14:46.656Z,37.51
2022-08-25T11:17:55.981Z,37.85
2022-08-25T11:21:10.097Z,37.75
2022-08-25T11:24:09.300Z,37.95
2022-08-25T11:26:57.748Z,38.83
2022-08-25T11:37:11.112Z,41.20
2022-08-25T11:39:55.940Z,41.12
2022-08-25T11:42:28.665Z,41.18
2022-08-25T11:45:42.452Z,40.97
2022-08-25T11:48:21.756Z,41.02
2022-08-25T11:51:04.998Z,40.64
2022-08-25T11:53:35.811Z,40.75
2022-08-25T11:56:09.514Z,40.51
2022-08-25T12:02:09.068Z,40.34
2022-08-25T12:04:45.116Z,40.72
2022-08-25T12:11:10.972Z,41.66
2022-08-25T12:13:49.686Z,41.58
2022-08-25T12:16:36.235Z,42.16
2022-08-25T12:22:55.528Z,41.96
2022-08-25T12:29:46.239Z,42.16
2022-08-25T12:32:34.794Z,43.03
2022-08-25T12:36:00.317Z,42.90
2022-08-25T12:38:53.018Z,43.19
2022-08-25T12:50:50.371Z,42.94
2022-08-25T12:53:27.995Z,43.02
2022-08-25T12:56:21.020Z,42.48
2022-08-25T12:59:02.500Z,42.12
2022-08-25T13:02:17.662Z,42.70
2022-08-25T13:05:17.045Z,42.48
2022-08-25T13:08:26.868Z,42.32
2022-08-25T13:15:44.376Z,41.79
2022-08-25T13:18:34.030Z,41.18
2022-08-25T13:21:40.956Z,40.50
2022-08-25T13:24:50.619Z,40.57
2022-08-25T13:32:01.454Z,39.93
2022-08-25T13:37:38.661Z,40.18
2022-08-25T13:44:19.524Z,39.27
2022-08-25T13:46:47.557Z,38.66
2022-08-25T13:53:17.031Z,38.40
2022-08-25T13:56:07.747Z,39.03
2022-08-25T13:59:03.586Z,39.08
2022-08-25T14:01:54.270Z,38.84
2022-08-25T14:04:50.591Z,38.46
2022-08-25T14:07:19.626Z,39.03
2022-08-25T14:10:09.030Z,38.65
2022-08-25T14:12:47.803Z,38.88
2022-08-25T14:15:21.778Z,38.88
2022-08-25T14:18:00.775Z,38.48
2022-08-25T14:20:31.202Z,38.26
2022-08-25T14:23:01.795Z,38.08
2022-08-25T14:25:49.388Z,38.31
2022-08-25T14:32:37.323Z,38.22
2022-08-25T14:35:25.124Z,37.63
2022-08-25T14:39:02.789Z,37.21
2022-08-25T14:45:31.486Z,36.93
2022-08-25T14:48:28.493Z,37.14
2022-08-25T14:51:16.110Z,37.19
2022-08-25T14:54:19.155Z,37.28
2022-08-25T14:57:08.281Z,37.73
2022-08-25T14:59:35.754Z,37.32
2022-08-25T15:02:15.325Z,37.27
2022-08-25T15:05:08.936Z,36.94
2022-08-25T15:08:33.384Z,37.13
2022-08-25T15:11:10.985Z,37.54
2022-08-25T15:18:26.046Z,37.85
2022-08-25T15:20:53.454Z,38.70
2022-08-25T15:24:17.660Z,38.49
2022-08-25T15:29:55.755Z,39.27
2022-08-25T15:32:25.017Z,39.30
2022-08-25T15:35:23.425Z,39.33
2022-08-25T15:38:16.196Z,39.44
2022-08-25T15:53:42.083Z,39.02
2022-08-25T15:56:29.198Z,39.51
2022-08-25T16:02:46.482Z,39.08
2022-08-25T16:13:12.080Z,39.89
2022-08-25T16:15:54.073Z,39.94
2022-08-25T16:18:22.729Z,39.95
2022-08-25T16:20:50.366Z,39.68
2022-08-25T16:27:17.797Z,40.20
2022-08-25T16:29:44.743Z,40.84
2022-08-25T16:32:13.897Z,41.04
2022-08-25T16:38:31.160Z,40.73
2022-08-25T16:48:40.511Z,41.66
2022-08-25T16:51:13.919Z,41.58
2022-08-25T16:54:00.691Z,41.56
2022-08-25T16:56:29.728Z,41.58
2022-08-25T16:59:12.920Z,41.64
2022-08-25T17:02:00.062Z,41.63
2022-08-25T17:04:32.248Z,41.56
2022-08-25T17:06:59.916Z,41.72
2022-08-25T17:09:29.656Z,41.93
2022-08-25T17:11:57.327Z,42.42
2022-08-25T17:14:24.935Z,42.28
2022-08-25T17:16:54.780Z,42.50
2022-08-25T17:19:23.675Z,42.10
2022-08-25T17:21:50.933Z,41.97
2022-08-25T17:24:18.004Z,42.20
2022-08-25T17:26:47.329Z,42.29
2022-08-25T17:29:19.025Z,42.02
2022-08-25T17:31:51.269Z,42.15
2022-08-25T17:34:22.464Z,42.42
2022-08-25T17:36:50.361Z,42.15
2022-08-25T17:39:18.501Z,42.60
2022-08-25T17:41:45.830Z,42.52
2022-08-25T17:44:13.588Z,42.56
2022-08-25T17:46:47.217Z,43.26
2022-08-25T17:49:20.921Z,43.05
2022-08-25T17:51:47.712Z,42.91
2022-08-25T17:54:14.913Z,42.69
2022-08-25T17:56:41.971Z,42.75
2022-08-25T17:59:09.356Z,42.76
2022-08-25T18:01:40.522Z,42.61
2022-08-25T18:04:08.270Z,42.73
2022-08-25T18:06:44.676Z,42.99
2022-08-25T18:13:02.411Z,43.25
2022-08-25T18:15:30.561Z,43.48
2022-08-25T18:17:57.636Z,43.40
2022-08-25T18:20:24.810Z,43.66
2022-08-25T18:22:51.724Z,43.45
2022-08-25T18:25:18.504Z,43.78
2022-08-25T18:27:45.250Z,44.18
2022-08-25T18:30:12.368Z,44.28
2022-08-25T18:32:40.526Z,44.15
2022-08-25T18:35:27.790Z,44.44
2022-08-25T18:42:06.530Z,44.44
2022-08-25T18:44:54.383Z,46.68
2022-08-25T18:47:41.610Z,48.67
2022-08-25T18:50:32.737Z,50.27
2022-08-25T18:53:30.713Z,50.30
2022-08-25T18:56:53.963Z,48.58
2022-08-25T18:59:24.189Z,48.02
2022-08-25T19:01:53.085Z,47.88
2022-08-25T19:04:20.492Z,49.56
2022-08-25T19:07:14.750Z,51.43
2022-08-25T19:09:41.535Z,52.35
2022-08-25T19:12:11.722Z,53.16
2022-08-25T19:14:49.357Z,53.05
2022-08-25T19:17:37.322Z,53.29
2022-08-25T19:24:15.886Z,52.63
2022-08-25T19:26:43.155Z,51.11
2022-08-25T19:30:30.450Z,50.77
2022-08-25T19:37:25.251Z,49.92
2022-08-25T19:39:55.552Z,50.13
2022-08-25T19:54:29.966Z,51.01
2022-08-25T19:57:28.632Z,50.91
2022-08-25T20:03:58.506Z,51.60
2022-08-25T20:14:16.814Z,52.31
2022-08-25T20:25:48.251Z,52.89
2022-08-25T20:28:37.350Z,53.13
2022-08-25T20:35:55.122Z,53.52
2022-08-25T20:39:20.544Z,53.97
2022-08-25T20:41:51.101Z,53.74
2022-08-25T20:47:58.464Z,54.46
2022-08-25T20:55:54.950Z,55.07
2022-08-25T20:58:54.671Z,55.19
2022-08-25T21:01:43.736Z,55.52
2022-08-25T21:04:14.529Z,55.68
2022-08-25T21:10:23.462Z,56.03
2022-08-25T21:12:53.540Z,56.08
2022-08-25T21:15:20.562Z,56.24
2022-08-25T21:21:49.799Z,56.44
2022-08-25T21:24:18.364Z,56.63
2022-08-25T21:26:49.759Z,56.67
2022-08-25T21:29:36.952Z,56.73
2022-08-25T21:32:24.598Z,57.16
2022-08-25T21:35:11.839Z,57.25
2022-08-25T21:38:29.467Z,57.64
2022-08-25T21:40:58.818Z,57.70
2022-08-25T21:43:26.194Z,57.88
2022-08-25T21:50:05.101Z,58.14
2022-08-25T21:52:43.515Z,57.91
2022-08-25T21:55:46.243Z,58.49
2022-08-25T21:58:13.816Z,58.52
2022-08-25T22:00:41.154Z,58.49
2022-08-25T22:03:08.223Z,58.48
2022-08-25T22:05:37.360Z,58.64
2022-08-25T22:08:04.293Z,58.93
2022-08-25T22:10:31.056Z,58.80
2022-08-25T22:12:57.804Z,58.96
2022-08-25T22:15:24.784Z,59.18
2022-08-25T22:17:51.726Z,59.32
2022-08-25T22:20:25.298Z,59.64
2022-08-25T22:23:20.161Z,59.68
2022-08-25T22:25:50.392Z,59.63
2022-08-25T22:32:06.672Z,59.98
2022-08-25T22:34:34.716Z,60.32
2022-08-25T22:37:07.061Z,60.26
2022-08-25T22:39:46.926Z,60.51
2022-08-25T22:42:14.219Z,60.41
2022-08-25T22:45:01.941Z,60.66
2022-08-25T22:47:29.782Z,60.41
2022-08-25T22:53:48.718Z,60.69
2022-08-25T22:56:29.825Z,60.96
2022-08-25T22:58:59.398Z,60.74
2022-08-25T23:01:26.897Z,60.99
2022-08-25T23:07:44.384Z,61.08
2022-08-25T23:15:12.203Z,61.37
2022-08-25T23:17:39.082Z,61.18
2022-08-25T23:27:47.598Z,61.43
2022-08-25T23:30:17.114Z,61.43
2022-08-25T23:32:43.916Z,61.43
2022-08-25T23:35:12.266Z,61.55
2022-08-25T23:37:41.875Z,61.47
2022-08-25T23:40:11.221Z,61.59
2022-08-25T23:42:58.761Z,61.72
2022-08-25T23:45:46.397Z,61.63
2022-08-25T23:48:34.793Z,61.64
2022-08-25T23:51:28.234Z,61.82
2022-08-25T23:54:15.852Z,61.73
2022-08-25T23:57:03.642Z,61.71
2022-08-25T23:59:53.894Z,61.86
